Historyczne dane pomiarowe

Dodano dane terminowe – wersja testowa.

Dane z okresu 1951-2019

Wersja bazy: 1.34 [2019-03-16, lista zmian], aktualizacja planowana na 2019-04-15

Dane meteo z obszaru Polski uzyskane na podstawie danych udostępnionych przez Instytut Meteorologii i Gospodarki Wodnej – Państwowy Instytut Badawczy.

 

Wybierz Datę:    

       

TemperaturaWilgotnośćWiatrCiśnienieOpadyŚniegCzas trwania zjawisk
 Stacja t tx tn tng RH VA  wxwx mslp ppp RRR   cm mm wxwxwxwxwxwxwx
1983-08-14 12.7 16.2 9.2--- 3.7 1.7---- 0.0------------
1983-08-13 14.6 21.4 13.6--- 6.3 3.3---- 5.8------------
1983-08-12 17.8 26.0 12.0--- 2.7 1.7---- 0.0------------
1983-08-11 17.6 24.3 12.0--- 2.3 1.0---- 0.6------------
1983-08-10 17.5 25.0 12.0--- 0.7 1.0---- 0.0------------
1983-08-09 18.1 24.6 14.7--- 4.7 1.3---- 0.0------------
1983-08-08 16.6 21.1 14.0--- 4.7 2.0---- 2.0------------
1983-08-07 13.4 15.4 11.5--- 7.7 1.3---- 2.8------------
1983-08-06 13.7 17.4 11.2--- 6.3 1.0---- 0.6------------
1983-08-05 10.7 13.5 7.3--- 7.3 2.3---- 0.0------------
1983-08-04 10.4 16.7 9.8--- 8.0 1.0---- 4.5------------
1983-08-03 17.5 21.0 16.3--- 5.0 0.7---- 2.4------------
1983-08-02 17.8 26.0 14.3--- 5.7 1.7---- 0.3------------
1983-08-01 19.6 30.0 7.3--- 0.0 2.0---- 0.0------------
1983-07-31 16.7 24.7 9.3--- 0.0 1.3---- 0.0------------
1983-07-30 17.2 22.3 14.9--- 6.0 2.3---- 0.4------------
1983-07-29 17.9 23.5 12.0--- 4.3 1.3---- 10.4------------
1983-07-28 21.1 26.8 16.1--- 4.0 1.3---- 0.0------------
1983-07-27 21.7 31.9 10.0--- 0.3 1.0---- 0.0------------
1983-07-26 17.8 26.0 9.0--- 0.0 1.3---- 0.0------------
1983-07-25 16.3 21.1 13.3--- 2.3 0.7---- 0.0------------
1983-07-24 16.4 23.6 9.1--- 2.7 1.0---- 0.0------------
1983-07-23 16.7 21.4 12.7--- 6.3 2.3---- 0.0------------
1983-07-22 11.0 14.0 8.0--- 8.0 0.7---- 4.9------------
1983-07-21 11.4 15.1 8.8--- 4.3 3.0---- 1.0------------
1983-07-20 16.2 25.3 11.5--- 5.7 1.3---- 2.4------------
1983-07-19 21.6 28.4 15.1--- 0.7 1.0---- 0.0------------
1983-07-18 21.2 29.7 14.8--- 0.7 0.3---- 2.0------------
1983-07-17 20.2 25.5 11.0--- 1.0 0.7---- 0.0------------
1983-07-16 19.0 26.5 11.2--- 1.7 1.3---- 0.0------------
1983-07-15 18.8 24.3 14.1--- 3.7 1.3---- 0.0------------
1983-07-14 16.4 22.1 14.7--- 8.0 3.3---- 32.0------------
1983-07-13 19.1 22.1 15.1--- 4.7 2.0---- 32.0------------
1983-07-12 16.9 22.1 13.3--- 7.7 3.3---- 10.0------------
1983-07-11 17.4 25.0 11.8--- 6.7 2.0---- 10.7------------
1983-07-10 20.1 26.8 10.4--- 1.3 1.7---- 0.0------------
1983-07-09 18.1 26.1 8.7--- 1.3 1.0---- 0.0------------
1983-07-08 19.9 26.0 11.5--- 0.0 1.7---- 0.0------------
1983-07-07 20.4 27.5 12.9--- 1.3 2.0---- 0.0------------
1983-07-06 20.2 26.8 11.8--- 1.3 1.7---- 0.0------------
1983-07-05 18.2 25.2 10.0--- 2.0 0.7---- 0.0------------
1983-07-04 18.4 24.9 9.8--- 1.3 1.7---- 0.0------------
1983-07-03 16.3 23.2 9.1--- 2.7 1.0---- 0.0------------
1983-07-02 15.5 23.1 12.0--- 8.0 2.0---- 0.0------------
1983-07-01 17.3 24.8 9.0--- 2.0 1.0---- 0.1------------
1983-06-30 14.5 21.5 4.2--- 3.3 1.0---- 0.0------------
1983-06-29 12.8 16.1 7.8--- 2.3 0.7---- 0.0------------
1983-06-28 13.9 17.2 12.4--- 8.0 0.0---- 8.7------------
1983-06-27 18.6 25.3 14.0--- 4.0 2.0---- 23.5------------
1983-06-26 19.8 23.9 12.5--- 4.7 1.7---- 0.0------------
1983-06-25 18.9 26.1 9.4--- 0.0 1.7---- 1.0------------
1983-06-24 16.4 25.0 6.6--- 1.3 1.0---- 0.0------------
1983-06-23 13.4 21.5 3.6--- 0.3 1.7---- 0.0------------
1983-06-22 15.5 21.1 10.0--- 0.7 1.3---- 0.0------------
1983-06-21 17.5 24.3 13.1--- 3.0 0.7---- 0.0------------
1983-06-20 15.4 17.9 14.1--- 8.0 1.0---- 4.4------------
1983-06-19 12.0 14.7 10.4--- 8.0 3.7---- 37.6------------
1983-06-18 9.4 11.9 8.0--- 8.0 2.0---- 11.8------------
1983-06-17 9.1 12.3 7.9--- 8.0 3.3---- 6.0------------
1983-06-16 8.4 15.0 6.8--- 8.0 2.0---- 7.9------------
318.4 ms

 

Źródłem pochodzenia danych jest Instytut Meteorologii i Gospodarki Wodnej – Państwowy Instytut Badawczy. Dane Instytutu Meteorologii i Gospodarki Wodnej – Państwowego Instytutu Badawczego zostały przetworzone.

Dane źródłowe można odnaleźć na stronie https://dane.imgw.pl